Time;durP1;ratioP1;P1;durP2;ratioP2;P2;SDS_P1;SDS_P2;PMS_P1;PMS_P2;Temp;Humidity;BMP_temperature;BMP_pressure;BME280_temperature;BME280_humidity;BME280_pressure;Samples;Min_cycle;Max_cycle;Signal;HPM_P1;HPM_P2
2022/06/28 01:42:59;;;;;;;4.40;4.00;;;20.30;99.90;;;;;;7411321;19;20386;-71
2022/06/28 01:45:26;;;;;;;4.38;4.07;;;20.40;99.90;;;;;;7390384;19;20316;-70
2022/06/28 01:47:52;;;;;;;4.17;3.77;;;20.40;99.90;;;;;;7393507;19;20319;-71
2022/06/28 01:50:37;;;;;;;4.15;3.75;;;20.40;99.90;;;;;;7285626;19;2004486;-72
2022/06/28 01:53:02;;;;;;;5.37;4.20;;;20.40;99.90;;;;;;7391558;19;20364;-74
2022/06/28 01:55:47;;;;;;;4.28;3.88;;;20.50;99.90;;;;;;7388624;19;20569;-72
2022/06/28 01:58:27;;;;;;;5.07;4.00;;;20.50;99.90;;;;;;7287859;19;2004593;-71
2022/06/28 02:00:54;;;;;;;4.15;3.85;;;20.50;99.90;;;;;;7388557;19;20308;-73
2022/06/28 02:03:19;;;;;;;4.40;4.00;;;20.40;99.90;;;;;;7390188;19;20292;-72
2022/06/28 02:05:55;;;;;;;4.00;3.60;;;20.40;99.90;;;;;;7390226;19;20301;-74
2022/06/28 02:08:21;;;;;;;3.85;3.55;;;20.50;99.90;;;;;;7391861;19;20809;-72
2022/06/28 02:11:07;;;;;;;4.45;3.85;;;20.60;99.90;;;;;;7285837;19;2004431;-72
2022/06/28 02:13:53;;;;;;;4.50;3.45;;;20.70;99.90;;;;;;7392032;19;20300;-71
2022/06/28 02:16:19;;;;;;;3.50;3.20;;;20.70;99.90;;;;;;7388807;19;21035;-73
2022/06/28 02:18:45;;;;;;;3.53;3.23;;;20.80;99.90;;;;;;7391144;19;20907;-72
2022/06/28 02:21:11;;;;;;;3.65;3.35;;;20.90;99.90;;;;;;7389834;19;20352;-72
2022/06/28 02:23:36;;;;;;;4.65;4.07;;;20.90;99.90;;;;;;7390202;19;20312;-75
2022/06/28 02:26:02;;;;;;;4.78;4.35;;;20.70;99.90;;;;;;7388019;19;20337;-71
2022/06/28 02:28:30;;;;;;;5.50;4.60;;;20.50;99.90;;;;;;7391845;19;20301;-74
2022/06/28 02:30:56;;;;;;;5.55;5.05;;;20.10;99.90;;;;;;7379306;19;20353;-71
2022/06/28 02:33:21;;;;;;;5.17;4.67;;;19.90;99.90;;;;;;7382394;19;22139;-71
2022/06/28 02:41:20;;;;;;;5.63;4.00;;;19.60;99.90;;;;;;7379484;19;20329;-73
2022/06/28 02:43:46;;;;;;;4.70;4.30;;;19.60;99.90;;;;;;7381261;19;20334;-75
2022/06/28 02:46:12;;;;;;;5.50;4.28;;;19.70;99.90;;;;;;7382121;19;20357;-72
2022/06/28 02:48:37;;;;;;;5.20;4.70;;;19.70;99.90;;;;;;7382279;19;21030;-71
2022/06/28 02:51:03;;;;;;;4.95;4.55;;;19.70;99.90;;;;;;7376253;19;20332;-71
2022/06/28 02:53:29;;;;;;;5.38;4.63;;;19.70;99.90;;;;;;7381580;19;20312;-70
2022/06/28 02:55:55;;;;;;;5.45;4.38;;;19.60;99.90;;;;;;7381655;19;20325;-74
2022/06/28 02:58:20;;;;;;;4.60;4.20;;;19.60;99.90;;;;;;7381271;19;20305;-71
2022/06/28 03:00:46;;;;;;;4.63;4.23;;;19.50;99.90;;;;;;7378904;19;21641;-71
2022/06/28 03:03:13;;;;;;;5.28;4.78;;;19.40;99.90;;;;;;7382084;19;20333;-71
2022/06/28 03:05:39;;;;;;;4.57;4.18;;;19.10;99.90;;;;;;7382010;19;21354;-72
2022/06/28 03:08:05;;;;;;;5.80;4.80;;;19.10;99.90;;;;;;7384165;19;20341;-73
2022/06/28 03:10:32;;;;;;;5.85;5.22;;;19.00;99.90;;;;;;7376731;19;20396;-71
2022/06/28 03:13:05;;;;;;;5.17;4.70;;;19.00;99.90;;;;;;7382370;19;20345;-70
2022/06/28 03:15:30;;;;;;;6.20;5.00;;;18.90;99.90;;;;;;7372904;19;20321;-70
2022/06/28 03:17:56;;;;;;;6.17;5.13;;;19.00;99.90;;;;;;7380629;19;20316;-73
2022/06/28 03:20:22;;;;;;;5.30;4.90;;;18.90;99.90;;;;;;7378174;19;21012;-72
2022/06/28 03:22:47;;;;;;;6.13;5.53;;;19.00;99.90;;;;;;7380610;19;20353;-72
2022/06/28 03:25:13;;;;;;;5.67;5.17;;;18.90;99.90;;;;;;7379290;19;20773;-72
2022/06/28 03:27:38;;;;;;;5.18;4.72;;;19.00;99.90;;;;;;7381885;19;20313;-74
2022/06/28 03:30:05;;;;;;;7.13;5.57;;;19.10;99.90;;;;;;7379728;19;20871;-72
2022/06/28 03:32:31;;;;;;;6.07;5.47;;;19.10;99.90;;;;;;7379884;19;20981;-71
2022/06/28 03:34:57;;;;;;;6.03;5.43;;;19.10;99.90;;;;;;7380795;19;20428;-71
2022/06/28 03:37:24;;;;;;;6.45;5.53;;;19.00;99.90;;;;;;7380301;19;20316;-71
2022/06/28 03:39:53;;;;;;;6.10;5.50;;;19.20;99.90;;;;;;7382027;19;20313;-73
2022/06/28 03:42:21;;;;;;;5.93;5.32;;;19.10;99.90;;;;;;7377392;19;20416;-73
2022/06/28 03:44:49;;;;;;;6.22;5.57;;;19.10;99.90;;;;;;7378514;19;20347;-72
2022/06/28 03:47:14;;;;;;;7.77;6.53;;;19.00;99.90;;;;;;7380914;19;20372;-74
2022/06/28 03:50:12;;;;;;;6.70;6.00;;;18.90;99.90;;;;;;7277604;19;2004402;-72
2022/06/28 03:52:58;;;;;;;7.03;6.38;;;18.80;99.90;;;;;;7381500;19;20364;-73
2022/06/28 03:55:43;;;;;;;6.50;5.90;;;18.80;99.90;;;;;;7277181;19;2004270;-73
2022/06/28 03:58:09;;;;;;;7.28;6.53;;;18.90;99.90;;;;;;7379657;19;20328;-75
2022/06/28 04:00:34;;;;;;;6.73;6.13;;;18.80;99.90;;;;;;7376478;19;20337;-76
2022/06/28 04:03:00;;;;;;;7.37;6.33;;;18.80;99.90;;;;;;7381344;19;20343;-72
2022/06/28 04:05:27;;;;;;;7.72;6.93;;;18.80;99.90;;;;;;7373569;19;20301;-73
2022/06/28 04:07:54;;;;;;;7.40;6.70;;;18.80;99.90;;;;;;7382156;19;20349;-71
2022/06/28 04:10:30;;;;;;;7.88;7.07;;;18.70;99.90;;;;;;7379167;19;21163;-72
2022/06/28 04:13:02;;;;;;;8.95;7.32;;;18.70;99.90;;;;;;7381334;19;20891;-71
2022/06/28 04:15:28;;;;;;;8.52;7.72;;;18.60;99.90;;;;;;7381391;19;20755;-70
2022/06/28 04:18:01;;;;;;;7.85;7.13;;;18.60;99.90;;;;;;7384200;19;20307;-78
2022/06/28 04:20:49;;;;;;;9.02;8.13;;;18.50;99.90;;;;;;7278756;19;2004337;-75
2022/06/28 04:23:15;;;;;;;8.15;7.35;;;18.40;99.90;;;;;;7380546;19;20703;-74
2022/06/28 04:25:41;;;;;;;8.60;7.80;;;18.50;99.90;;;;;;7381177;19;20936;-70
2022/06/28 04:28:18;;;;;;;8.70;7.80;;;18.50;99.90;;;;;;7383202;19;20346;-75
2022/06/28 04:30:56;;;;;;;9.80;8.68;;;18.60;99.90;;;;;;7379525;19;20304;-73
2022/06/28 04:33:22;;;;;;;9.82;8.93;;;18.50;99.90;;;;;;7381757;19;20339;-75
2022/06/28 04:35:48;;;;;;;9.87;8.97;;;18.40;99.90;;;;;;7381060;19;20440;-74
2022/06/28 04:38:13;;;;;;;10.38;9.20;;;18.40;99.90;;;;;;7381701;19;20305;-72
2022/06/28 04:40:49;;;;;;;10.55;9.48;;;18.40;99.90;;;;;;7380965;19;20329;-78
2022/06/28 04:43:30;;;;;;;11.05;9.95;;;18.30;99.90;;;;;;7380805;19;20361;-71
2022/06/28 04:45:55;;;;;;;11.07;9.98;;;18.30;99.90;;;;;;7373398;19;20336;-71
2022/06/28 04:48:23;;;;;;;11.10;10.00;;;18.30;99.90;;;;;;7379502;19;20377;-71
2022/06/28 04:50:49;;;;;;;10.75;9.73;;;18.30;99.90;;;;;;7373796;19;20341;-72
2022/06/28 04:53:16;;;;;;;9.90;8.93;;;18.30;99.90;;;;;;7377997;19;20407;-73
2022/06/28 04:55:47;;;;;;;10.48;9.48;;;18.30;99.90;;;;;;7379691;19;20332;-73
2022/06/28 04:58:13;;;;;;;9.73;8.73;;;18.40;99.90;;;;;;7379753;19;20411;-71
2022/06/28 05:00:38;;;;;;;10.30;9.30;;;18.40;99.90;;;;;;7377374;19;20825;-72
2022/06/28 05:03:11;;;;;;;9.83;8.90;;;18.40;99.90;;;;;;7379514;19;20332;-71
2022/06/28 05:05:56;;;;;;;10.63;9.52;;;18.50;99.90;;;;;;7379925;19;20301;-74
2022/06/28 05:08:23;;;;;;;10.07;9.07;;;18.40;99.90;;;;;;7382383;19;20316;-71
2022/06/28 05:10:59;;;;;;;10.70;9.13;;;18.40;99.90;;;;;;7380832;19;20356;-71
2022/06/28 05:13:44;;;;;;;10.70;8.90;;;18.30;99.90;;;;;;7273550;19;2004126;-70
2022/06/28 05:16:13;;;;;;;10.65;9.55;;;18.30;99.90;;;;;;7375979;19;20354;-71
2022/06/28 05:18:38;;;;;;;9.60;8.70;;;18.30;99.90;;;;;;7379959;19;20352;-72
2022/06/28 05:21:07;;;;;;;10.00;9.00;;;18.30;99.90;;;;;;7378622;19;20325;-70
2022/06/28 05:23:37;;;;;;;10.50;9.43;;;18.40;99.90;;;;;;7369266;19;20340;-70
2022/06/28 05:26:21;;;;;;;10.35;9.27;;;18.50;99.90;;;;;;7375497;19;20340;-71
2022/06/28 05:29:10;;;;;;;10.07;9.18;;;18.40;99.90;;;;;;7274304;19;2004583;-70
2022/06/28 05:31:35;;;;;;;9.40;8.50;;;18.50;99.90;;;;;;7374080;19;20300;-72
2022/06/28 05:34:02;;;;;;;10.00;9.00;;;18.50;99.90;;;;;;7374656;19;20344;-74
2022/06/28 05:36:27;;;;;;;9.48;8.52;;;18.50;99.90;;;;;;7373189;19;20968;-75
2022/06/28 05:38:53;;;;;;;8.70;7.90;;;18.60;99.90;;;;;;7376506;19;20328;-73
2022/06/28 05:41:18;;;;;;;9.60;8.63;;;18.60;99.90;;;;;;7376427;19;20325;-72
2022/06/28 05:43:44;;;;;;;8.73;7.93;;;18.70;99.90;;;;;;7380051;19;20316;-73
2022/06/28 05:46:09;;;;;;;8.30;7.60;;;18.70;99.90;;;;;;7377896;19;20320;-73
2022/06/28 05:48:36;;;;;;;8.43;7.63;;;18.70;99.90;;;;;;7379987;19;20326;-72
2022/06/28 05:51:01;;;;;;;8.85;7.93;;;18.80;99.90;;;;;;7375729;19;20344;-71
2022/06/28 05:53:27;;;;;;;7.78;6.97;;;18.90;99.90;;;;;;7378182;19;20333;-70
2022/06/28 05:55:53;;;;;;;7.83;7.03;;;18.90;99.90;;;;;;7378899;19;20350;-72
2022/06/28 05:58:19;;;;;;;8.25;7.45;;;19.00;99.90;;;;;;7381767;19;20317;-70
2022/06/28 06:00:44;;;;;;;7.43;6.73;;;19.00;99.90;;;;;;7377257;19;20316;-73
2022/06/28 06:03:10;;;;;;;7.97;7.23;;;19.10;99.90;;;;;;7378828;19;20425;-71
2022/06/28 06:05:36;;;;;;;9.37;8.27;;;19.00;99.90;;;;;;7381070;19;20376;-72
2022/06/28 06:08:02;;;;;;;8.65;7.85;;;19.10;99.90;;;;;;7388487;19;20344;-78
2022/06/28 06:10:28;;;;;;;9.20;8.37;;;18.90;99.90;;;;;;7387564;19;20317;-74
2022/06/28 06:12:53;;;;;;;8.80;8.00;;;18.90;99.90;;;;;;7386118;19;21448;-74
2022/06/28 06:15:20;;;;;;;8.43;7.63;;;19.00;99.90;;;;;;7386195;19;20420;-73
2022/06/28 06:17:46;;;;;;;9.10;8.20;;;19.10;99.90;;;;;;7386724;19;20697;-75
2022/06/28 06:20:11;;;;;;;9.43;8.43;;;19.10;99.90;;;;;;7387908;19;20348;-73
2022/06/28 06:22:37;;;;;;;8.73;7.83;;;19.00;99.90;;;;;;7387333;19;20312;-71
2022/06/28 06:25:11;;;;;;;8.95;8.15;;;19.10;99.90;;;;;;7385976;19;20406;-74
2022/06/28 06:27:44;;;;;;;7.80;7.10;;;19.10;99.90;;;;;;7387147;19;20325;-73
2022/06/28 06:30:10;;;;;;;8.05;7.28;;;19.10;99.90;;;;;;7384394;19;20334;-72
2022/06/28 06:32:55;;;;;;;7.30;6.60;;;19.00;99.90;;;;;;7386503;19;20321;-74
2022/06/28 06:35:29;;;;;;;7.55;6.85;;;19.10;99.90;;;;;;7386008;19;20867;-70
2022/06/28 06:38:00;;;;;;;6.80;6.10;;;19.00;99.90;;;;;;7387869;19;20312;-79
2022/06/28 06:40:27;;;;;;;7.22;6.35;;;18.90;99.90;;;;;;7386277;19;20670;-72
2022/06/28 06:42:52;;;;;;;6.80;6.20;;;19.00;99.90;;;;;;7386402;19;20381;-71
2022/06/28 06:45:20;;;;;;;6.63;6.03;;;19.00;99.90;;;;;;7383706;19;20426;-73
2022/06/28 06:47:46;;;;;;;7.07;6.40;;;19.00;99.90;;;;;;7386400;19;20336;-72
2022/06/28 06:50:12;;;;;;;6.85;6.25;;;19.00;99.90;;;;;;7386534;19;20336;-71
2022/06/28 06:52:38;;;;;;;5.80;5.30;;;19.10;99.90;;;;;;7385255;19;20296;-73
2022/06/28 06:55:05;;;;;;;6.32;5.82;;;18.90;99.90;;;;;;7386179;19;20329;-71
2022/06/28 06:57:31;;;;;;;6.70;6.00;;;19.00;99.90;;;;;;7386859;19;20752;-74
2022/06/28 06:59:56;;;;;;;6.37;5.77;;;19.00;99.90;;;;;;7386487;19;20344;-72
2022/06/28 07:02:23;;;;;;;6.60;5.70;;;19.00;99.90;;;;;;7385570;19;20305;-74
2022/06/28 07:04:52;;;;;;;6.27;5.67;;;19.00;99.90;;;;;;7384153;19;20332;-74
2022/06/28 07:07:18;;;;;;;6.55;5.95;;;19.00;99.90;;;;;;7386684;19;20313;-73
2022/06/28 07:09:44;;;;;;;6.10;5.60;;;19.10;99.90;;;;;;7386768;19;20316;-71
2022/06/28 07:12:10;;;;;;;6.15;5.55;;;19.10;99.90;;;;;;7382859;19;20368;-73
2022/06/28 07:14:36;;;;;;;6.38;5.80;;;19.20;99.90;;;;;;7386527;19;20308;-72
2022/06/28 07:17:04;;;;;;;5.90;5.30;;;19.20;99.90;;;;;;7385680;19;20329;-74
2022/06/28 07:19:30;;;;;;;5.78;5.25;;;19.30;99.90;;;;;;7387587;19;20305;-71
2022/06/28 07:21:55;;;;;;;5.60;5.10;;;19.40;99.90;;;;;;7384059;19;20343;-72
2022/06/28 07:24:21;;;;;;;6.00;5.30;;;19.40;99.90;;;;;;7385621;19;20335;-71
2022/06/28 07:26:49;;;;;;;5.53;5.03;;;19.50;99.90;;;;;;7386119;19;20321;-75
2022/06/28 07:29:14;;;;;;;6.43;5.45;;;19.40;99.90;;;;;;7386047;19;20654;-74
2022/06/28 07:31:41;;;;;;;5.40;5.00;;;19.30;99.90;;;;;;7381696;19;20316;-73
2022/06/28 07:34:08;;;;;;;5.90;5.40;;;19.40;99.90;;;;;;7386187;19;20325;-74
2022/06/28 07:36:34;;;;;;;5.43;4.93;;;19.30;99.90;;;;;;7384531;19;20360;-76
2022/06/28 07:39:01;;;;;;;4.78;4.38;;;19.40;99.90;;;;;;7385896;19;20847;-74
2022/06/28 07:41:30;;;;;;;5.72;5.22;;;19.50;99.90;;;;;;7383739;19;20317;-74
2022/06/28 07:44:04;;;;;;;4.97;4.57;;;19.40;99.90;;;;;;7385336;19;20329;-74
2022/06/28 07:46:31;;;;;;;5.60;5.10;;;19.50;99.90;;;;;;7384336;19;20372;-72
2022/06/28 07:48:56;;;;;;;6.47;5.13;;;19.50;99.90;;;;;;7385845;19;20308;-76
2022/06/28 07:54:08;;;;;;;5.50;5.00;;;19.50;99.90;;;;;;7283110;19;2004786;-77
2022/06/28 07:56:43;;;;;;;5.68;5.18;;;19.50;99.90;;;;;;7384019;19;20369;-77
2022/06/28 07:59:10;;;;;;;4.68;4.28;;;19.50;99.90;;;;;;7384501;19;20885;-77
2022/06/28 08:01:37;;;;;;;4.93;4.53;;;19.50;99.90;;;;;;7381193;19;20337;-80
2022/06/28 08:04:11;;;;;;;5.57;5.07;;;19.60;99.90;;;;;;7385825;19;20328;-76
2022/06/28 08:06:37;;;;;;;7.05;5.10;;;19.50;99.90;;;;;;7383865;19;20313;-79
2022/06/28 08:09:03;;;;;;;5.68;5.13;;;19.50;99.90;;;;;;7384767;19;20312;-79
2022/06/28 08:11:29;;;;;;;5.30;4.80;;;19.50;99.90;;;;;;7384931;19;20858;-76
2022/06/28 08:13:58;;;;;;;3.58;3.28;;;19.40;99.90;;;;;;7382161;19;20364;-76
2022/06/28 08:16:24;;;;;;;3.55;3.25;;;19.30;99.90;;;;;;7383137;19;20305;-72
2022/06/28 08:18:50;;;;;;;3.80;3.50;;;19.30;99.90;;;;;;7386168;19;20308;-77
2022/06/28 08:21:16;;;;;;;3.37;3.07;;;19.30;99.90;;;;;;7383470;19;20930;-72
2022/06/28 08:23:41;;;;;;;3.40;3.10;;;19.20;99.90;;;;;;7385659;19;20340;-75
2022/06/28 08:26:07;;;;;;;3.38;3.17;;;19.30;99.90;;;;;;7383227;19;20392;-74
2022/06/28 08:28:33;;;;;;;3.00;2.80;;;19.20;99.90;;;;;;7383123;19;20312;-76
2022/06/28 08:30:59;;;;;;;3.35;2.75;;;19.30;99.90;;;;;;7383588;19;20373;-74
2022/06/28 08:33:24;;;;;;;3.17;2.97;;;19.40;99.90;;;;;;7383713;19;20942;-74
2022/06/28 08:35:50;;;;;;;2.60;2.40;;;19.50;99.90;;;;;;7383273;19;20345;-75
2022/06/28 08:38:16;;;;;;;2.75;2.38;;;19.60;99.90;;;;;;7383981;19;20914;-75
2022/06/28 08:40:42;;;;;;;3.27;2.97;;;19.80;99.90;;;;;;7382261;19;20324;-77
2022/06/28 08:43:08;;;;;;;2.70;2.50;;;20.00;99.90;;;;;;7383003;19;20332;-75
2022/06/28 08:45:33;;;;;;;2.40;2.20;;;20.20;99.90;;;;;;7383909;19;20327;-78
2022/06/28 08:48:02;;;;;;;2.42;2.30;;;20.20;99.90;;;;;;7383774;19;21048;-76
2022/06/28 08:50:37;;;;;;;2.58;2.38;;;20.40;99.90;;;;;;7382404;19;20428;-77
2022/06/28 08:53:08;;;;;;;2.40;2.20;;;20.60;99.90;;;;;;7383420;19;20319;-78
2022/06/28 08:55:35;;;;;;;2.50;2.30;;;20.80;99.90;;;;;;7383159;19;20965;-77
2022/06/28 08:58:01;;;;;;;2.15;1.95;;;20.90;99.90;;;;;;7383925;19;20301;-75
2022/06/28 09:00:27;;;;;;;2.05;1.85;;;21.00;99.90;;;;;;7380710;19;20304;-74
2022/06/28 09:02:53;;;;;;;1.97;1.87;;;21.10;99.90;;;;;;7384109;19;20673;-77
2022/06/28 09:05:20;;;;;;;1.73;1.63;;;21.00;99.90;;;;;;7382073;19;20966;-75
2022/06/28 09:07:45;;;;;;;1.60;1.50;;;21.00;99.90;;;;;;7384864;19;20693;-76
2022/06/28 09:10:11;;;;;;;1.60;1.50;;;21.20;99.90;;;;;;7382611;19;20364;-78
2022/06/28 09:12:37;;;;;;;1.60;1.50;;;21.40;99.90;;;;;;7382306;19;20317;-77
2022/06/28 09:15:04;;;;;;;1.90;1.80;;;21.60;99.90;;;;;;7382162;19;20339;-76
2022/06/28 09:17:31;;;;;;;1.55;1.45;;;21.90;99.90;;;;;;7385654;19;20317;-73
2022/06/28 09:20:01;;;;;;;1.60;1.50;;;22.20;99.90;;;;;;7381957;19;20427;-74
2022/06/28 09:22:32;;;;;;;1.50;1.40;;;22.60;99.90;;;;;;7384417;19;21323;-73
2022/06/28 09:24:58;;;;;;;1.52;1.40;;;23.10;99.90;;;;;;7383032;19;20348;-76
2022/06/28 09:27:37;;;;;;;1.50;1.40;;;23.10;99.90;;;;;;7383905;19;20324;-79
2022/06/28 09:30:05;;;;;;;1.48;1.40;;;22.80;99.90;;;;;;7382011;19;20343;-75
2022/06/28 09:32:32;;;;;;;1.48;1.38;;;22.90;99.90;;;;;;7380472;19;20328;-79
2022/06/28 09:35:00;;;;;;;3.72;1.50;;;23.00;99.90;;;;;;7381450;19;20301;-76
2022/06/28 09:37:42;;;;;;;1.63;1.42;;;23.00;99.90;;;;;;7384388;19;20320;-80
2022/06/28 09:40:18;;;;;;;2.10;1.63;;;22.90;99.90;;;;;;7282379;19;2004518;-76
2022/06/28 09:42:45;;;;;;;1.50;1.40;;;23.00;99.90;;;;;;7391704;19;20853;-76
2022/06/28 09:45:12;;;;;;;1.50;1.40;;;22.90;99.90;;;;;;7387104;19;20661;-79
2022/06/28 09:47:44;;;;;;;1.50;1.40;;;23.10;99.90;;;;;;7390527;19;20336;-79
2022/06/28 09:50:11;;;;;;;1.70;1.60;;;23.50;99.90;;;;;;7388245;19;20308;-77
2022/06/28 09:52:36;;;;;;;1.70;1.60;;;23.80;99.90;;;;;;7387940;19;20353;-75
2022/06/28 09:55:02;;;;;;;1.70;1.60;;;24.00;99.90;;;;;;7387441;19;22023;-80
2022/06/28 09:57:28;;;;;;;1.60;1.50;;;24.30;99.90;;;;;;7389755;19;20316;-76
2022/06/28 09:59:54;;;;;;;1.25;1.20;;;24.30;99.90;;;;;;7388763;19;20413;-76
2022/06/28 10:02:19;;;;;;;1.40;1.30;;;24.40;99.90;;;;;;7388860;19;20344;-75
2022/06/28 10:04:45;;;;;;;1.40;1.30;;;24.60;99.90;;;;;;7376554;19;20337;-77
2022/06/28 10:07:11;;;;;;;1.67;1.58;;;24.40;99.90;;;;;;7385523;19;20331;-80
2022/06/28 10:09:37;;;;;;;1.60;1.50;;;24.20;99.90;;;;;;7390133;19;20657;-73
2022/06/28 10:15:01;;;;;;;1.42;1.33;;;24.30;99.90;;;;;;7284519;19;2004479;-77
2022/06/28 10:17:47;;;;;;;1.40;1.40;;;24.30;99.90;;;;;;7387303;19;20309;-77
2022/06/28 10:20:16;;;;;;;1.60;1.50;;;24.30;99.90;;;;;;7283132;19;2004529;-77
2022/06/28 10:22:42;;;;;;;2.60;1.35;;;24.00;99.90;;;;;;7383655;19;20317;-76
2022/06/28 10:25:15;;;;;;;1.50;1.40;;;24.30;99.90;;;;;;7381813;19;20646;-73
2022/06/28 10:27:45;;;;;;;1.45;1.40;;;24.50;99.90;;;;;;7384585;19;20323;-75
2022/06/28 10:30:13;;;;;;;1.30;1.30;;;25.00;99.90;;;;;;7384271;19;20846;-78
2022/06/28 10:32:43;;;;;;;1.33;1.33;;;25.50;99.90;;;;;;7382472;19;20333;-74
2022/06/28 10:35:08;;;;;;;1.55;1.45;;;25.90;99.90;;;;;;7381319;19;20320;-72
2022/06/28 10:37:34;;;;;;;1.27;1.27;;;26.70;99.90;;;;;;7383199;19;20345;-72
2022/06/28 10:40:24;;;;;;;1.60;1.50;;;27.30;99.90;;;;;;7383019;19;20801;-73
2022/06/28 10:42:50;;;;;;;1.42;1.40;;;27.70;99.90;;;;;;7280296;19;2004482;-73
2022/06/28 10:45:15;;;;;;;1.95;1.50;;;27.40;99.90;;;;;;7383221;19;21278;-74
2022/06/28 10:48:10;;;;;;;1.60;1.50;;;27.10;99.90;;;;;;7386480;19;20350;-72
2022/06/28 10:50:56;;;;;;;1.58;1.48;;;27.00;99.90;;;;;;7381723;19;20325;-73
2022/06/28 10:53:22;;;;;;;1.40;1.40;;;26.80;99.90;;;;;;7279092;19;2004559;-74
2022/06/28 10:56:16;;;;;;;1.50;1.40;;;26.80;99.90;;;;;;7383435;19;20349;-72
2022/06/28 10:59:04;;;;;;;1.57;1.47;;;27.10;99.90;;;;;;7281697;19;2009828;-72
2022/06/28 11:01:39;;;;;;;1.60;1.50;;;27.60;99.90;;;;;;7380968;19;20392;-72
2022/06/28 11:04:09;;;;;;;1.40;1.30;;;28.00;99.90;;;;;;7383608;19;20320;-72
2022/06/28 11:06:43;;;;;;;1.50;1.40;;;28.10;99.90;;;;;;7383199;19;20321;-71
2022/06/28 11:09:27;;;;;;;1.53;1.43;;;28.40;99.90;;;;;;7277766;19;2020180;-72
2022/06/28 11:12:06;;;;;;;1.33;1.30;;;28.10;99.90;;;;;;7375755;19;20353;-72
2022/06/28 11:14:35;;;;;;;1.20;1.20;;;28.50;99.90;;;;;;7383763;19;20692;-71
2022/06/28 11:17:02;;;;;;;1.52;1.40;;;28.10;99.90;;;;;;7383474;19;20329;-72
2022/06/28 11:19:27;;;;;;;1.50;1.40;;;28.20;99.90;;;;;;7385164;19;20332;-71
2022/06/28 11:21:54;;;;;;;1.38;1.27;;;28.70;99.90;;;;;;7378467;19;22204;-71
2022/06/28 11:24:21;;;;;;;1.70;1.40;;;28.50;99.90;;;;;;7383205;19;20305;-72
2022/06/28 11:29:32;;;;;;;1.35;1.30;;;29.40;99.90;;;;;;7384255;19;20361;-71
2022/06/28 11:31:57;;;;;;;1.40;1.30;;;29.20;99.90;;;;;;7377968;19;20327;-72
2022/06/28 11:34:26;;;;;;;1.43;1.33;;;29.50;99.90;;;;;;7382336;19;20332;-71
2022/06/28 11:36:55;;;;;;;1.17;1.17;;;29.40;99.90;;;;;;7380585;19;20377;-72
2022/06/28 11:39:23;;;;;;;1.50;1.40;;;30.20;99.90;;;;;;7381903;19;20315;-72
2022/06/28 11:41:52;;;;;;;1.25;1.25;;;30.40;99.30;;;;;;7377217;19;20851;-72
2022/06/28 11:44:18;;;;;;;1.30;1.30;;;31.00;99.00;;;;;;7377438;19;20330;-71
2022/06/28 11:46:44;;;;;;;1.20;1.20;;;30.90;99.40;;;;;;7382108;19;21187;-71
2022/06/28 11:49:10;;;;;;;1.23;1.20;;;31.00;98.60;;;;;;7383715;19;20329;-71
2022/06/28 11:51:35;;;;;;;1.23;1.20;;;31.00;98.40;;;;;;7382707;19;20332;-71
2022/06/28 11:54:08;;;;;;;1.40;1.30;;;31.00;95.40;;;;;;7381107;19;20320;-71
2022/06/28 11:56:46;;;;;;;1.33;1.23;;;30.60;94.10;;;;;;7381408;19;20336;-71
2022/06/28 11:59:12;;;;;;;1.20;1.20;;;30.50;96.50;;;;;;7279514;19;2004632;-71
2022/06/28 12:01:41;;;;;;;1.37;1.37;;;30.90;96.80;;;;;;7374984;19;20333;-71
2022/06/28 12:04:07;;;;;;;1.40;1.30;;;30.50;92.70;;;;;;7378266;19;20374;-70
2022/06/28 12:06:33;;;;;;;1.60;1.50;;;30.40;92.90;;;;;;7379306;19;20403;-70
2022/06/28 12:09:06;;;;;;;1.40;1.30;;;30.90;93.80;;;;;;7381744;19;20340;-71
2022/06/28 12:11:32;;;;;;;1.55;1.45;;;30.80;94.20;;;;;;7377796;19;20329;-71
2022/06/28 12:14:08;;;;;;;1.23;1.20;;;31.10;90.30;;;;;;7377094;19;20362;-71
2022/06/28 12:16:50;;;;;;;1.10;1.10;;;30.50;94.10;;;;;;7379631;19;20414;-72
2022/06/28 12:19:21;;;;;;;1.27;1.20;;;30.70;95.30;;;;;;7279054;19;2004410;-72
2022/06/28 12:22:09;;;;;;;1.30;1.20;;;31.20;93.40;;;;;;7376552;19;20325;-71
2022/06/28 12:24:45;;;;;;;1.20;1.20;;;31.60;93.60;;;;;;7378727;19;20300;-72
2022/06/28 12:27:15;;;;;;;1.70;1.60;;;31.90;90.50;;;;;;7276014;19;2004366;-72
2022/06/28 12:29:40;;;;;;;1.30;1.20;;;31.90;92.50;;;;;;7379552;19;20336;-72
2022/06/28 12:32:06;;;;;;;1.40;1.30;;;32.70;93.10;;;;;;7378080;19;20365;-72
2022/06/28 12:34:32;;;;;;;1.13;1.13;;;32.30;91.10;;;;;;7382009;19;20337;-73
2022/06/28 12:36:57;;;;;;;1.27;1.27;;;32.20;89.50;;;;;;7377715;19;20361;-72
2022/06/28 12:39:23;;;;;;;1.60;1.50;;;32.10;88.60;;;;;;7380456;19;20321;-71
2022/06/28 12:41:48;;;;;;;1.48;1.38;;;31.90;90.10;;;;;;7371898;19;20347;-72
2022/06/28 12:44:14;;;;;;;1.50;1.40;;;32.00;89.90;;;;;;7378177;19;20691;-73
2022/06/28 12:46:40;;;;;;;1.50;1.40;;;31.90;89.30;;;;;;7372655;19;20657;-73
2022/06/28 12:49:06;;;;;;;1.20;1.20;;;31.60;88.20;;;;;;7382629;19;20308;-73
2022/06/28 12:51:31;;;;;;;1.25;1.25;;;31.60;87.40;;;;;;7374975;19;21305;-72
2022/06/28 12:53:57;;;;;;;1.27;1.20;;;31.30;88.80;;;;;;7377634;19;20359;-72
2022/06/28 12:56:23;;;;;;;1.40;1.30;;;31.60;89.30;;;;;;7380834;19;20351;-73
2022/06/28 12:58:48;;;;;;;1.27;1.27;;;32.20;89.90;;;;;;7379691;19;20444;-72
2022/06/28 13:01:14;;;;;;;1.40;1.30;;;31.90;85.10;;;;;;7373366;19;20312;-73
2022/06/28 13:03:40;;;;;;;2.03;1.60;;;31.80;83.60;;;;;;7377411;19;20680;-73
2022/06/28 13:06:06;;;;;;;1.40;1.30;;;30.50;77.10;;;;;;7378242;19;20313;-73
2022/06/28 13:08:32;;;;;;;1.43;1.30;;;31.20;80.80;;;;;;7379404;19;20311;-72
2022/06/28 13:10:57;;;;;;;1.30;1.30;;;31.40;85.80;;;;;;7379308;19;20328;-74
2022/06/28 13:13:23;;;;;;;1.50;1.40;;;31.70;85.90;;;;;;7378340;19;20356;-72
2022/06/28 13:15:49;;;;;;;1.40;1.30;;;31.90;86.90;;;;;;7376870;19;20371;-72
2022/06/28 13:18:14;;;;;;;1.50;1.40;;;32.10;83.70;;;;;;7379750;19;20340;-73
2022/06/28 13:20:40;;;;;;;1.20;1.20;;;31.60;81.50;;;;;;7374899;19;20348;-72
2022/06/28 13:23:06;;;;;;;1.47;1.37;;;32.10;84.90;;;;;;7377962;19;20862;-72
2022/06/28 13:25:31;;;;;;;1.13;1.13;;;32.90;85.90;;;;;;7378011;19;20309;-72
2022/06/28 13:27:57;;;;;;;1.50;1.40;;;33.20;81.20;;;;;;7381524;19;20970;-72
2022/06/28 13:30:22;;;;;;;1.40;1.30;;;33.90;80.60;;;;;;7376816;19;20320;-73
2022/06/28 13:32:48;;;;;;;1.43;1.33;;;34.00;76.10;;;;;;7373882;19;20356;-73
2022/06/28 13:35:13;;;;;;;1.20;1.20;;;34.00;73.50;;;;;;7370644;19;20859;-72
2022/06/28 13:37:39;;;;;;;1.40;1.30;;;34.00;76.20;;;;;;7375215;19;21136;-73
2022/06/28 13:40:05;;;;;;;2.60;1.20;;;34.70;73.80;;;;;;7372792;19;20313;-73
2022/06/28 13:42:31;;;;;;;1.45;1.35;;;35.30;71.60;;;;;;7370385;19;20645;-73
2022/06/28 13:44:57;;;;;;;1.47;1.30;;;35.00;71.10;;;;;;7374802;19;20324;-72
2022/06/28 13:47:22;;;;;;;1.10;1.10;;;35.00;65.30;;;;;;7374576;19;20314;-73
2022/06/28 13:49:48;;;;;;;1.13;1.10;;;34.90;65.10;;;;;;7375188;19;20934;-74
2022/06/28 13:52:13;;;;;;;1.40;1.30;;;35.40;69.30;;;;;;7371467;19;20348;-73
2022/06/28 13:54:39;;;;;;;1.20;1.20;;;36.10;68.40;;;;;;7377511;19;20320;-72
2022/06/28 13:57:05;;;;;;;1.67;1.30;;;36.60;66.80;;;;;;7376112;19;20331;-74
2022/06/28 13:59:31;;;;;;;1.50;1.40;;;36.90;66.30;;;;;;7375513;19;20867;-74
2022/06/28 14:01:56;;;;;;;1.23;1.23;;;36.50;60.40;;;;;;7371683;19;20356;-73
2022/06/28 14:04:22;;;;;;;1.40;1.30;;;36.70;64.60;;;;;;7376016;19;20340;-73
2022/06/28 14:06:48;;;;;;;1.17;1.17;;;36.60;62.50;;;;;;7375926;19;20359;-75
2022/06/28 14:09:13;;;;;;;1.20;1.20;;;36.80;63.30;;;;;;7374453;19;20909;-74
2022/06/28 14:11:39;;;;;;;1.37;1.30;;;37.10;63.30;;;;;;7372043;19;20357;-74
2022/06/28 14:14:05;;;;;;;1.17;1.17;;;37.40;60.30;;;;;;7376193;19;20321;-73
2022/06/28 14:16:30;;;;;;;1.20;1.20;;;37.30;59.60;;;;;;7374162;19;20309;-73
2022/06/28 14:18:56;;;;;;;1.83;1.13;;;37.20;57.90;;;;;;7374150;19;20328;-73
2022/06/28 14:21:21;;;;;;;1.50;1.40;;;37.50;59.30;;;;;;7376425;19;20346;-73
2022/06/28 14:23:47;;;;;;;1.23;1.13;;;36.70;54.80;;;;;;7372770;19;20340;-74
2022/06/28 14:26:13;;;;;;;1.40;1.40;;;36.10;57.50;;;;;;7376064;19;20316;-74
2022/06/28 14:28:38;;;;;;;1.50;1.30;;;36.20;57.80;;;;;;7385250;19;20953;-73
2022/06/28 14:31:04;;;;;;;1.47;1.37;;;36.60;57.80;;;;;;7375531;19;21699;-73
2022/06/28 14:33:29;;;;;;;1.20;1.20;;;37.10;58.50;;;;;;7379581;19;20293;-73
2022/06/28 14:35:55;;;;;;;1.03;1.03;;;37.50;54.80;;;;;;7379995;19;20451;-73
2022/06/28 14:38:23;;;;;;;1.60;1.30;;;37.80;56.00;;;;;;7376873;19;20323;-73
2022/06/28 14:40:49;;;;;;;1.23;1.23;;;37.80;55.90;;;;;;7379193;19;20355;-73
2022/06/28 14:43:14;;;;;;;1.27;1.27;;;37.90;53.90;;;;;;7376633;19;20305;-74
2022/06/28 14:45:40;;;;;;;1.10;1.10;;;37.40;54.10;;;;;;7380435;19;20305;-73
2022/06/28 14:48:06;;;;;;;1.40;1.30;;;36.80;54.50;;;;;;7381428;19;20823;-74